Terminal Aerodrome Forecast
Issued by NWS Omaha/Valley, NE

Home | Current Version | Previous Version | Text Only | Print | Product List | Glossary On
Versions: 1 2 3 4 5 6 7 8 9 10 11 12 13 14 15 16
000
FTUS43 KOAX 270713 AAA
TAFOMA
TAF AMD
KOMA 270713Z 2707/2806 12004KT P6SM OVC006
      TEMPO 2710/2713 4SM BR OVC004
     FM271600 VRB03KT P6SM BKN015
     FM271700 15006KT P6SM SCT040 BKN250=

USA.gov is the U.S. government's official web portal to all federal, state and local government web resources and services.